Welcome to Northern Hawkes Bay. New Zealand.
PWS Header
      nz Flag



Hit Counter


W3C Valid W3C Valid logo


    Wairoa

Select any of the Stations below to visit their websites.










Historic Data from Weather Underground
Select the location of interest below. Wairoa is the default. Please have patience, this Data is slow to load in.
Northern Hawkes Bay Historical Data
 
Daily Summary for April 21, 2018 Units:  Metric    English   Both
« Previous Day
Next Day »
Daily Weekly Monthly Yearly Custom
  Current: High: Low: Average:
Temperature: 15.7 °C 15.8 °C 13.2 °C 15.1 °C
Dew Point: 10.9 °C 11.0 °C 8.9 °C 9.8 °C
Humidity: 73% 79% 67% 71%
Wind Speed: 6.1km/h 12.2km/h 0.0km/h 5.8km/h
Wind Gust: 13.4km/h 24.5km/h - -
WindNorth - - SSW
Pressure: 1009.0 hPa 1010.0 hPa 1008.7 hPa -
Precipitation: 0.0 mm      
Historical Graphs
 
 
Tabular Data for April 21, 2018
Time Temperature Dew Point Pressure Wind Wind Speed Wind Gust Humidity Rainfall Rate (Hourly) solar
00:01 13.2 °C 9.7 °C 1010.0 hPa NW 2.6 km/h 6.1 km/h 79% 0.0 mm 0 W/m2
00:06 13.3 °C 9.7 °C 1010.0 hPa Calm   6.1 km/h 79% 0.0 mm 0 W/m2
00:11 13.5 °C 9.9 °C 1010.0 hPa NNE 2.6 km/h 6.1 km/h 79% 0.0 mm 0 W/m2
00:16 13.8 °C 10.1 °C 1010.0 hPa NNW 3.5 km/h 8.7 km/h 78% 0.0 mm 0 W/m2
00:21 14.1 °C 9.7 °C 1009.7 hPa Calm   8.7 km/h 75% 0.0 mm 0 W/m2
00:26 14.3 °C 9.7 °C 1009.7 hPa NNE 3.5 km/h 6.1 km/h 74% 0.0 mm 0 W/m2
00:31 13.9 °C 9.7 °C 1010.0 hPa North 5.0 km/h 8.7 km/h 76% 0.0 mm 0 W/m2
00:36 13.8 °C 9.7 °C 1009.7 hPa North 2.6 km/h 8.7 km/h 76% 0.0 mm 0 W/m2
00:41 13.8 °C 9.7 °C 1010.0 hPa NNE 2.6 km/h 7.2 km/h 76% 0.0 mm 0 W/m2
00:46 13.8 °C 9.7 °C 1010.0 hPa NE 5.0 km/h 6.1 km/h 76% 0.0 mm 0 W/m2
00:51 13.8 °C 9.7 °C 1009.7 hPa North 5.0 km/h 8.7 km/h 76% 0.0 mm 0 W/m2
00:56 14.3 °C 9.7 °C 1009.7 hPa NNE 3.5 km/h 9.7 km/h 74% 0.0 mm 0 W/m2
01:01 14.7 °C 9.7 °C 1009.7 hPa NNE 6.1 km/h 14.8 km/h 72% 0.0 mm 0 W/m2
01:20 14.8 °C 9.2 °C 1009.7 hPa North 5.0 km/h 8.7 km/h 69% 0.0 mm 0 W/m2
01:25 14.6 °C 9.2 °C 1009.7 hPa North 7.2 km/h 9.7 km/h 70% 0.0 mm 0 W/m2
01:30 14.7 °C 9.3 °C 1009.4 hPa NNE 7.2 km/h 13.4 km/h 70% 0.0 mm 0 W/m2
01:35 14.8 °C 9.2 °C 1009.4 hPa NNE 3.5 km/h 13.4 km/h 69% 0.0 mm 0 W/m2
01:40 14.8 °C 9.2 °C 1009.4 hPa NE 1.1 km/h 12.2 km/h 69% 0.0 mm 0 W/m2
01:45 14.7 °C 9.1 °C 1009.7 hPa NNE 1.1 km/h 9.7 km/h 69% 0.0 mm 0 W/m2
01:50 14.6 °C 9.0 °C 1009.7 hPa NE 5.0 km/h 9.7 km/h 69% 0.0 mm 0 W/m2
01:55 14.6 °C 9.0 °C 1009.7 hPa Calm   8.7 km/h 69% 0.0 mm 0 W/m2
02:00 14.6 °C 9.2 °C 1009.4 hPa NE 6.1 km/h 11.1 km/h 70% 0.0 mm 0 W/m2
02:05 14.8 °C 9.2 °C 1009.4 hPa NNE 9.7 km/h 12.2 km/h 69% 0.0 mm 0 W/m2
02:10 15.0 °C 8.9 °C 1009.4 hPa North 5.0 km/h 12.2 km/h 67% 0.0 mm 0 W/m2
02:15 15.1 °C 9.0 °C 1009.4 hPa North 7.2 km/h 13.4 km/h 67% 0.0 mm 0 W/m2
02:20 15.2 °C 9.3 °C 1009.4 hPa North 8.7 km/h 13.4 km/h 68% 0.0 mm 0 W/m2
02:25 15.3 °C 9.4 °C 1009.4 hPa North 6.1 km/h 13.4 km/h 68% 0.0 mm 0 W/m2
02:30 15.3 °C 9.7 °C 1009.4 hPa NNW 5.0 km/h 13.4 km/h 69% 0.0 mm 0 W/m2
02:35 15.2 °C 9.6 °C 1009.4 hPa NNW 7.2 km/h 13.4 km/h 69% 0.0 mm 0 W/m2
02:40 15.1 °C 9.4 °C 1009.4 hPa North 6.1 km/h 13.4 km/h 69% 0.0 mm 0 W/m2
02:45 15.2 °C 9.6 °C 1009.4 hPa North 2.6 km/h 11.1 km/h 69% 0.0 mm 0 W/m2
02:50 15.2 °C 9.8 °C 1009.4 hPa North 5.0 km/h 9.7 km/h 70% 0.0 mm 0 W/m2
02:55 15.3 °C 9.9 °C 1009.4 hPa North 6.1 km/h 11.1 km/h 70% 0.0 mm 0 W/m2
03:00 15.4 °C 9.9 °C 1009.4 hPa NNE 1.1 km/h 12.2 km/h 70% 0.0 mm 0 W/m2
03:06 15.4 °C 9.7 °C 1009.0 hPa NNE 8.7 km/h 15.8 km/h 69% 0.0 mm 0 W/m2
03:11 15.5 °C 9.8 °C 1009.0 hPa NNW 8.7 km/h 15.8 km/h 69% 0.0 mm 0 W/m2
03:16 15.6 °C 9.9 °C 1009.0 hPa NNW 8.7 km/h 17.2 km/h 69% 0.0 mm 0 W/m2
03:21 15.7 °C 9.8 °C 1009.0 hPa North 8.7 km/h 17.2 km/h 68% 0.0 mm 0 W/m2
03:26 15.7 °C 9.6 °C 1009.0 hPa North 11.1 km/h 17.2 km/h 67% 0.0 mm 0 W/m2
03:31 15.8 °C 9.7 °C 1009.0 hPa North 9.7 km/h 15.8 km/h 67% 0.0 mm 0 W/m2
03:36 15.7 °C 9.6 °C 1009.0 hPa North 9.7 km/h 18.3 km/h 67% 0.0 mm 0 W/m2
03:41 15.7 °C 9.6 °C 1008.7 hPa North 6.1 km/h 18.3 km/h 67% 0.0 mm 0 W/m2
03:46 15.7 °C 9.8 °C 1008.7 hPa North 7.2 km/h 17.2 km/h 68% 0.0 mm 0 W/m2
03:51 15.7 °C 9.8 °C 1008.7 hPa North 12.2 km/h 24.5 km/h 68% 0.0 mm 0 W/m2
03:56 15.7 °C 9.6 °C 1008.7 hPa North 8.7 km/h 24.5 km/h 67% 0.0 mm 0 W/m2
04:01 15.7 °C 9.6 °C 1008.7 hPa North 7.2 km/h 24.5 km/h 67% 0.0 mm 0 W/m2
04:06 15.5 °C 9.6 °C 1009.0 hPa North 6.1 km/h 17.2 km/h 68% 0.0 mm 0 W/m2
04:11 15.5 °C 9.6 °C 1009.4 hPa North 7.2 km/h 20.9 km/h 68% 0.0 mm 0 W/m2
04:16 15.5 °C 9.6 °C 1009.0 hPa North 7.2 km/h 20.9 km/h 68% 0.0 mm 0 W/m2
04:21 15.5 °C 9.6 °C 1009.0 hPa North 5.0 km/h 20.9 km/h 68% 0.0 mm 0 W/m2
04:26 15.4 °C 9.7 °C 1009.0 hPa North 2.6 km/h 15.8 km/h 69% 0.0 mm 0 W/m2
04:31 15.3 °C 9.7 °C 1009.0 hPa North 6.1 km/h 12.2 km/h 69% 0.0 mm 0 W/m2
04:36 15.4 °C 9.7 °C 1009.0 hPa North 5.0 km/h 13.4 km/h 69% 0.0 mm 0 W/m2
04:41 15.4 °C 9.7 °C 1009.4 hPa NNW 6.1 km/h 14.8 km/h 69% 0.0 mm 0 W/m2
04:46 15.5 °C 9.8 °C 1009.0 hPa North 8.7 km/h 14.8 km/h 69% 0.0 mm 0 W/m2
04:51 15.5 °C 9.8 °C 1009.0 hPa NNE 6.1 km/h 12.2 km/h 69% 0.0 mm 0 W/m2
04:56 15.4 °C 9.7 °C 1009.4 hPa NNW 6.1 km/h 13.4 km/h 69% 0.0 mm 0 W/m2
05:01 15.4 °C 9.9 °C 1009.0 hPa NNW 7.2 km/h 15.8 km/h 70% 0.0 mm 0 W/m2
05:06 15.4 °C 9.9 °C 1009.4 hPa North 9.7 km/h 15.8 km/h 70% 0.0 mm 0 W/m2
05:11 15.4 °C 9.9 °C 1009.4 hPa North 3.5 km/h 15.8 km/h 70% 0.0 mm 0 W/m2
05:16 15.2 °C 10.2 °C 1009.0 hPa North 5.0 km/h 15.8 km/h 72% 0.0 mm 0 W/m2
05:21 15.1 °C 10.1 °C 1009.4 hPa North 6.1 km/h 11.1 km/h 72% 0.0 mm 0 W/m2
05:26 14.9 °C 10.3 °C 1009.4 hPa NNE 6.1 km/h 11.1 km/h 74% 0.0 mm 0 W/m2
05:31 15.0 °C 10.2 °C 1009.4 hPa North 6.1 km/h 11.1 km/h 73% 0.0 mm 0 W/m2
05:36 15.1 °C 10.3 °C 1009.4 hPa North 7.2 km/h 11.1 km/h 73% 0.0 mm 0 W/m2
05:41 15.2 °C 10.4 °C 1009.4 hPa North 6.1 km/h 11.1 km/h 73% 0.0 mm 0 W/m2
05:46 15.2 °C 10.4 °C 1009.4 hPa North 5.0 km/h 13.4 km/h 73% 0.0 mm 0 W/m2
05:51 15.3 °C 10.5 °C 1009.4 hPa North 5.0 km/h 13.4 km/h 73% 0.0 mm 0 W/m2
05:56 15.4 °C 10.6 °C 1009.4 hPa NNW 6.1 km/h 11.1 km/h 73% 0.0 mm 0 W/m2
06:01 15.5 °C 10.7 °C 1009.4 hPa NW 8.7 km/h 14.8 km/h 73% 0.0 mm 0 W/m2
06:06 15.7 °C 10.9 °C 1009.4 hPa NW 8.7 km/h 14.8 km/h 73% 0.0 mm 0 W/m2
06:11 15.8 °C 11.0 °C 1009.4 hPa NW 5.0 km/h 14.8 km/h 73% 0.0 mm 0 W/m2
06:16 15.8 °C 10.8 °C 1009.4 hPa NNW 3.5 km/h 13.4 km/h 72% 0.0 mm 0 W/m2
06:21 15.8 °C 11.0 °C 1009.4 hPa North 6.1 km/h 11.1 km/h 73% 0.0 mm 0 W/m2
06:26 15.7 °C 10.9 °C 1009.0 hPa North 6.1 km/h 13.4 km/h 73% 0.0 mm 0 W/m2
Northern Hawkes Bay. New Zealand Historic Data
Compliments of Weather Underground - 1 mb